sensor_id;sensor_type;location;lat;lon;timestamp;pressure;altitude;pressure_sealevel;temperature;humidity
21574;BME280;10948;48.706;9.258;2023-05-02T00:02:05;97856.47;;;11.20;100.00
21574;BME280;10948;48.706;9.258;2023-05-02T00:04:30;97859.06;;;11.20;100.00
21574;BME280;10948;48.706;9.258;2023-05-02T00:06:56;97855.63;;;11.19;100.00
21574;BME280;10948;48.706;9.258;2023-05-02T00:09:21;97858.69;;;11.12;100.00
21574;BME280;10948;48.706;9.258;2023-05-02T00:11:46;97858.13;;;11.07;100.00
21574;BME280;10948;48.706;9.258;2023-05-02T00:14:11;97857.84;;;11.11;100.00
21574;BME280;10948;48.706;9.258;2023-05-02T00:16:37;97847.50;;;10.96;100.00
21574;BME280;10948;48.706;9.258;2023-05-02T00:19:02;97851.41;;;10.75;100.00
21574;BME280;10948;48.706;9.258;2023-05-02T00:21:27;97847.72;;;10.93;100.00
21574;BME280;10948;48.706;9.258;2023-05-02T00:23:57;97851.59;;;10.86;100.00
21574;BME280;10948;48.706;9.258;2023-05-02T00:26:22;97851.81;;;10.83;100.00
21574;BME280;10948;48.706;9.258;2023-05-02T00:28:48;97851.81;;;10.83;100.00
21574;BME280;10948;48.706;9.258;2023-05-02T00:31:13;97852.16;;;10.77;100.00
21574;BME280;10948;48.706;9.258;2023-05-02T00:33:39;97860.06;;;10.76;100.00
21574;BME280;10948;48.706;9.258;2023-05-02T00:36:04;97851.97;;;10.80;100.00
21574;BME280;10948;48.706;9.258;2023-05-02T00:38:29;97855.28;;;10.68;100.00
21574;BME280;10948;48.706;9.258;2023-05-02T00:40:54;97854.00;;;10.75;100.00
21574;BME280;10948;48.706;9.258;2023-05-02T00:43:20;97855.50;;;10.65;100.00
21574;BME280;10948;48.706;9.258;2023-05-02T00:45:45;97860.31;;;10.57;100.00
21574;BME280;10948;48.706;9.258;2023-05-02T00:48:11;97850.44;;;10.62;100.00
21574;BME280;10948;48.706;9.258;2023-05-02T00:50:37;97851.22;;;10.64;100.00
21574;BME280;10948;48.706;9.258;2023-05-02T00:53:03;97856.00;;;10.56;100.00
21574;BME280;10948;48.706;9.258;2023-05-02T00:55:28;97853.06;;;10.62;100.00
21574;BME280;10948;48.706;9.258;2023-05-02T00:57:53;97861.41;;;10.53;100.00
21574;BME280;10948;48.706;9.258;2023-05-02T01:00:19;97856.75;;;10.44;100.00
21574;BME280;10948;48.706;9.258;2023-05-02T01:05:13;97858.03;;;10.37;100.00
21574;BME280;10948;48.706;9.258;2023-05-02T01:07:43;97858.53;;;10.28;100.00
21574;BME280;10948;48.706;9.258;2023-05-02T01:12:46;97870.19;;;10.37;100.00
21574;BME280;10948;48.706;9.258;2023-05-02T01:15:15;97868.50;;;10.36;100.00
21574;BME280;10948;48.706;9.258;2023-05-02T01:17:41;97870.28;;;10.20;100.00
21574;BME280;10948;48.706;9.258;2023-05-02T01:20:09;97879.88;;;10.19;100.00
21574;BME280;10948;48.706;9.258;2023-05-02T01:22:37;97878.34;;;10.15;100.00
21574;BME280;10948;48.706;9.258;2023-05-02T01:25:21;97872.00;;;10.21;100.00
21574;BME280;10948;48.706;9.258;2023-05-02T01:30:18;97877.84;;;10.24;100.00
21574;BME280;10948;48.706;9.258;2023-05-02T01:32:45;97884.50;;;10.14;100.00
21574;BME280;10948;48.706;9.258;2023-05-02T01:35:12;97888.75;;;10.15;100.00
21574;BME280;10948;48.706;9.258;2023-05-02T01:37:38;97879.13;;;10.17;100.00
21574;BME280;10948;48.706;9.258;2023-05-02T01:40:05;97868.16;;;10.12;100.00
21574;BME280;10948;48.706;9.258;2023-05-02T01:42:32;97877.03;;;10.08;100.00
21574;BME280;10948;48.706;9.258;2023-05-02T01:45:00;97876.22;;;10.08;100.00
21574;BME280;10948;48.706;9.258;2023-05-02T01:47:28;97872.31;;;9.99;100.00
21574;BME280;10948;48.706;9.258;2023-05-02T01:49:54;97879.75;;;10.07;100.00
21574;BME280;10948;48.706;9.258;2023-05-02T01:52:20;97881.97;;;10.13;100.00
21574;BME280;10948;48.706;9.258;2023-05-02T01:54:46;97882.06;;;10.11;100.00
21574;BME280;10948;48.706;9.258;2023-05-02T01:57:12;97876.88;;;10.11;100.00
21574;BME280;10948;48.706;9.258;2023-05-02T01:59:39;97875.53;;;10.04;100.00
21574;BME280;10948;48.706;9.258;2023-05-02T02:02:04;97878.28;;;10.01;100.00
21574;BME280;10948;48.706;9.258;2023-05-02T02:04:30;97875.06;;;9.96;100.00
21574;BME280;10948;48.706;9.258;2023-05-02T02:06:57;97879.81;;;10.05;100.00
21574;BME280;10948;48.706;9.258;2023-05-02T02:09:25;97877.78;;;9.95;100.00
21574;BME280;10948;48.706;9.258;2023-05-02T02:11:59;97879.38;;;9.97;100.00
21574;BME280;10948;48.706;9.258;2023-05-02T02:14:27;97881.22;;;9.80;100.00
21574;BME280;10948;48.706;9.258;2023-05-02T02:16:55;97893.66;;;9.90;100.00
21574;BME280;10948;48.706;9.258;2023-05-02T02:19:24;97886.59;;;9.92;100.00
21574;BME280;10948;48.706;9.258;2023-05-02T02:21:49;97890.44;;;9.85;100.00
21574;BME280;10948;48.706;9.258;2023-05-02T02:24:15;97901.34;;;9.76;100.00
21574;BME280;10948;48.706;9.258;2023-05-02T02:26:42;97899.31;;;9.81;100.00
21574;BME280;10948;48.706;9.258;2023-05-02T02:29:08;97907.63;;;9.72;100.00
21574;BME280;10948;48.706;9.258;2023-05-02T02:31:33;97910.97;;;9.74;100.00
21574;BME280;10948;48.706;9.258;2023-05-02T02:34:00;97917.84;;;9.75;100.00
21574;BME280;10948;48.706;9.258;2023-05-02T02:36:44;97917.94;;;9.58;100.00
21574;BME280;10948;48.706;9.258;2023-05-02T02:41:47;97917.75;;;9.61;100.00
21574;BME280;10948;48.706;9.258;2023-05-02T02:46:45;97925.31;;;9.50;100.00
21574;BME280;10948;48.706;9.258;2023-05-02T02:51:38;97930.31;;;9.53;100.00
21574;BME280;10948;48.706;9.258;2023-05-02T02:56:41;97934.16;;;9.46;100.00
21574;BME280;10948;48.706;9.258;2023-05-02T02:59:11;97935.00;;;9.47;100.00
21574;BME280;10948;48.706;9.258;2023-05-02T03:01:39;97931.97;;;9.39;100.00
21574;BME280;10948;48.706;9.258;2023-05-02T03:04:06;97938.94;;;9.38;100.00
21574;BME280;10948;48.706;9.258;2023-05-02T03:06:32;97947.31;;;9.43;100.00
21574;BME280;10948;48.706;9.258;2023-05-02T03:08:58;97944.69;;;9.43;100.00
21574;BME280;10948;48.706;9.258;2023-05-02T03:11:23;97950.06;;;9.40;100.00
21574;BME280;10948;48.706;9.258;2023-05-02T03:13:48;97954.34;;;9.41;100.00
21574;BME280;10948;48.706;9.258;2023-05-02T03:16:28;97957.53;;;9.46;100.00
21574;BME280;10948;48.706;9.258;2023-05-02T03:18:55;97965.34;;;9.46;100.00
21574;BME280;10948;48.706;9.258;2023-05-02T03:21:20;97966.81;;;9.35;100.00
21574;BME280;10948;48.706;9.258;2023-05-02T03:23:45;97969.97;;;9.24;100.00
21574;BME280;10948;48.706;9.258;2023-05-02T03:26:10;97971.53;;;9.27;100.00
21574;BME280;10948;48.706;9.258;2023-05-02T03:28:36;97975.53;;;9.34;100.00
21574;BME280;10948;48.706;9.258;2023-05-02T03:31:01;97976.84;;;9.08;100.00
21574;BME280;10948;48.706;9.258;2023-05-02T03:33:26;97980.38;;;9.24;100.00
21574;BME280;10948;48.706;9.258;2023-05-02T03:35:52;97988.41;;;9.35;100.00
21574;BME280;10948;48.706;9.258;2023-05-02T03:38:17;97977.84;;;9.23;100.00
21574;BME280;10948;48.706;9.258;2023-05-02T03:40:42;97983.72;;;9.26;100.00
21574;BME280;10948;48.706;9.258;2023-05-02T03:43:08;97986.00;;;9.32;100.00
21574;BME280;10948;48.706;9.258;2023-05-02T03:45:33;97986.13;;;9.29;100.00
21574;BME280;10948;48.706;9.258;2023-05-02T03:47:58;97994.09;;;9.26;100.00
21574;BME280;10948;48.706;9.258;2023-05-02T03:50:24;97997.13;;;9.34;100.00
21574;BME280;10948;48.706;9.258;2023-05-02T03:52:49;97998.50;;;9.41;100.00
21574;BME280;10948;48.706;9.258;2023-05-02T03:55:14;98013.13;;;9.59;100.00
21574;BME280;10948;48.706;9.258;2023-05-02T03:57:39;98014.81;;;9.60;100.00
21574;BME280;10948;48.706;9.258;2023-05-02T04:00:05;98011.47;;;9.58;100.00
21574;BME280;10948;48.706;9.258;2023-05-02T04:02:31;98021.31;;;9.52;100.00
21574;BME280;10948;48.706;9.258;2023-05-02T04:04:56;98023.53;;;9.59;100.00
21574;BME280;10948;48.706;9.258;2023-05-02T04:07:21;98019.00;;;9.63;100.00
21574;BME280;10948;48.706;9.258;2023-05-02T04:09:46;98020.00;;;9.60;100.00
21574;BME280;10948;48.706;9.258;2023-05-02T04:12:13;98024.91;;;9.49;100.00
21574;BME280;10948;48.706;9.258;2023-05-02T04:14:39;98021.28;;;9.69;100.00
21574;BME280;10948;48.706;9.258;2023-05-02T04:17:04;98033.44;;;9.68;100.00
21574;BME280;10948;48.706;9.258;2023-05-02T04:19:30;98038.31;;;9.74;100.00
21574;BME280;10948;48.706;9.258;2023-05-02T04:21:55;98030.09;;;9.66;100.00
21574;BME280;10948;48.706;9.258;2023-05-02T04:24:21;98034.22;;;9.70;100.00
21574;BME280;10948;48.706;9.258;2023-05-02T04:26:46;98039.00;;;9.78;100.00
21574;BME280;10948;48.706;9.258;2023-05-02T04:29:12;98041.84;;;9.73;100.00
21574;BME280;10948;48.706;9.258;2023-05-02T04:31:38;98042.91;;;9.69;100.00
21574;BME280;10948;48.706;9.258;2023-05-02T04:34:05;98034.28;;;9.69;100.00
21574;BME280;10948;48.706;9.258;2023-05-02T04:36:30;98042.28;;;9.81;100.00
21574;BME280;10948;48.706;9.258;2023-05-02T04:38:56;98038.91;;;9.79;100.00
21574;BME280;10948;48.706;9.258;2023-05-02T04:41:21;98048.22;;;9.83;100.00
21574;BME280;10948;48.706;9.258;2023-05-02T04:43:47;98043.81;;;9.85;100.00
21574;BME280;10948;48.706;9.258;2023-05-02T04:46:12;98050.34;;;9.92;100.00
21574;BME280;10948;48.706;9.258;2023-05-02T04:48:37;98051.28;;;9.91;100.00
21574;BME280;10948;48.706;9.258;2023-05-02T04:51:06;98050.97;;;9.97;100.00
21574;BME280;10948;48.706;9.258;2023-05-02T04:53:32;98048.09;;;10.02;100.00
21574;BME280;10948;48.706;9.258;2023-05-02T04:55:57;98050.97;;;9.97;100.00
21574;BME280;10948;48.706;9.258;2023-05-02T04:58:22;98054.13;;;10.02;100.00
21574;BME280;10948;48.706;9.258;2023-05-02T05:00:48;98055.97;;;10.17;100.00
21574;BME280;10948;48.706;9.258;2023-05-02T05:03:13;98058.56;;;10.17;100.00
21574;BME280;10948;48.706;9.258;2023-05-02T05:05:38;98062.59;;;10.23;100.00
21574;BME280;10948;48.706;9.258;2023-05-02T05:08:03;98065.53;;;10.32;100.00
21574;BME280;10948;48.706;9.258;2023-05-02T05:10:28;98060.34;;;10.32;100.00
21574;BME280;10948;48.706;9.258;2023-05-02T05:12:54;98066.56;;;10.45;100.00
21574;BME280;10948;48.706;9.258;2023-05-02T05:15:19;98066.97;;;10.53;100.00
21574;BME280;10948;48.706;9.258;2023-05-02T05:17:46;98066.63;;;10.59;100.00
21574;BME280;10948;48.706;9.258;2023-05-02T05:20:11;98073.16;;;10.51;100.00
21574;BME280;10948;48.706;9.258;2023-05-02T05:22:40;98078.56;;;10.63;100.00
21574;BME280;10948;48.706;9.258;2023-05-02T05:25:06;98075.50;;;10.71;100.00
21574;BME280;10948;48.706;9.258;2023-05-02T05:27:35;98077.84;;;10.75;100.00
21574;BME280;10948;48.706;9.258;2023-05-02T05:30:01;98080.91;;;10.83;100.00
21574;BME280;10948;48.706;9.258;2023-05-02T05:32:27;98096.66;;;10.80;100.00
21574;BME280;10948;48.706;9.258;2023-05-02T05:34:53;98087.50;;;10.88;100.00
21574;BME280;10948;48.706;9.258;2023-05-02T05:37:19;98103.56;;;10.81;100.00
21574;BME280;10948;48.706;9.258;2023-05-02T05:39:44;98105.22;;;10.82;100.00
21574;BME280;10948;48.706;9.258;2023-05-02T05:42:09;98106.22;;;10.95;100.00
21574;BME280;10948;48.706;9.258;2023-05-02T05:44:35;98112.81;;;10.87;100.00
21574;BME280;10948;48.706;9.258;2023-05-02T05:47:01;98121.84;;;10.95;100.00
21574;BME280;10948;48.706;9.258;2023-05-02T05:49:26;98120.75;;;10.99;100.00
21574;BME280;10948;48.706;9.258;2023-05-02T05:51:51;98125.56;;;10.91;100.00
21574;BME280;10948;48.706;9.258;2023-05-02T05:54:16;98131.25;;;11.13;100.00
21574;BME280;10948;48.706;9.258;2023-05-02T05:56:42;98126.81;;;11.29;100.00
21574;BME280;10948;48.706;9.258;2023-05-02T05:59:08;98126.44;;;11.21;100.00
21574;BME280;10948;48.706;9.258;2023-05-02T06:01:33;98132.63;;;11.34;100.00
21574;BME280;10948;48.706;9.258;2023-05-02T06:03:59;98128.03;;;11.53;100.00
21574;BME280;10948;48.706;9.258;2023-05-02T06:06:25;98135.00;;;11.68;100.00
21574;BME280;10948;48.706;9.258;2023-05-02T06:08:51;98134.56;;;11.89;100.00
21574;BME280;10948;48.706;9.258;2023-05-02T06:11:16;98128.94;;;12.11;100.00
21574;BME280;10948;48.706;9.258;2023-05-02T06:13:41;98130.88;;;12.21;100.00
21574;BME280;10948;48.706;9.258;2023-05-02T06:16:07;98137.78;;;12.36;100.00
21574;BME280;10948;48.706;9.258;2023-05-02T06:18:32;98136.94;;;12.50;100.00
21574;BME280;10948;48.706;9.258;2023-05-02T06:21:01;98141.38;;;12.76;100.00
21574;BME280;10948;48.706;9.258;2023-05-02T06:23:27;98148.97;;;12.52;100.00
21574;BME280;10948;48.706;9.258;2023-05-02T06:25:52;98146.81;;;12.31;100.00
21574;BME280;10948;48.706;9.258;2023-05-02T06:28:18;98158.38;;;12.27;100.00
21574;BME280;10948;48.706;9.258;2023-05-02T06:30:43;98162.13;;;12.37;100.00
21574;BME280;10948;48.706;9.258;2023-05-02T06:33:08;98164.44;;;12.41;100.00
21574;BME280;10948;48.706;9.258;2023-05-02T06:35:33;98161.34;;;12.35;100.00
21574;BME280;10948;48.706;9.258;2023-05-02T06:37:59;98169.19;;;12.35;100.00
21574;BME280;10948;48.706;9.258;2023-05-02T06:40:25;98173.84;;;12.30;100.00
21574;BME280;10948;48.706;9.258;2023-05-02T06:42:50;98176.34;;;12.31;100.00
21574;BME280;10948;48.706;9.258;2023-05-02T06:45:16;98181.69;;;12.30;100.00
21574;BME280;10948;48.706;9.258;2023-05-02T06:47:42;98175.91;;;12.25;100.00
21574;BME280;10948;48.706;9.258;2023-05-02T06:50:09;98179.44;;;12.38;100.00
21574;BME280;10948;48.706;9.258;2023-05-02T06:52:35;98186.34;;;12.39;100.00
21574;BME280;10948;48.706;9.258;2023-05-02T06:55:00;98180.94;;;12.56;100.00
21574;BME280;10948;48.706;9.258;2023-05-02T06:57:25;98183.91;;;12.64;100.00
21574;BME280;10948;48.706;9.258;2023-05-02T06:59:51;98185.75;;;12.62;100.00
21574;BME280;10948;48.706;9.258;2023-05-02T07:02:16;98185.50;;;12.66;100.00
21574;BME280;10948;48.706;9.258;2023-05-02T07:04:42;98195.66;;;12.85;100.00
21574;BME280;10948;48.706;9.258;2023-05-02T07:07:07;98198.34;;;12.97;100.00
21574;BME280;10948;48.706;9.258;2023-05-02T07:09:32;98201.06;;;13.10;100.00
21574;BME280;10948;48.706;9.258;2023-05-02T07:11:58;98195.63;;;13.13;100.00
21574;BME280;10948;48.706;9.258;2023-05-02T07:14:23;98201.22;;;13.07;100.00
21574;BME280;10948;48.706;9.258;2023-05-02T07:16:48;98199.19;;;13.12;100.00
21574;BME280;10948;48.706;9.258;2023-05-02T07:19:13;98211.13;;;13.16;100.00
21574;BME280;10948;48.706;9.258;2023-05-02T07:21:39;98205.91;;;13.16;100.00
21574;BME280;10948;48.706;9.258;2023-05-02T07:24:04;98207.38;;;13.20;100.00
21574;BME280;10948;48.706;9.258;2023-05-02T07:26:30;98207.09;;;13.10;100.00
21574;BME280;10948;48.706;9.258;2023-05-02T07:28:55;98207.84;;;13.26;100.00
21574;BME280;10948;48.706;9.258;2023-05-02T07:31:20;98212.94;;;13.28;100.00
21574;BME280;10948;48.706;9.258;2023-05-02T07:33:45;98222.50;;;13.29;100.00
21574;BME280;10948;48.706;9.258;2023-05-02T07:36:11;98224.03;;;13.31;100.00
21574;BME280;10948;48.706;9.258;2023-05-02T07:38:36;98215.34;;;13.45;100.00
21574;BME280;10948;48.706;9.258;2023-05-02T07:41:01;98216.00;;;13.61;100.00
21574;BME280;10948;48.706;9.258;2023-05-02T07:43:27;98219.47;;;13.61;100.00
21574;BME280;10948;48.706;9.258;2023-05-02T07:45:52;98222.66;;;13.79;100.00
21574;BME280;10948;48.706;9.258;2023-05-02T07:48:17;98223.13;;;13.85;100.00
21574;BME280;10948;48.706;9.258;2023-05-02T07:50:43;98210.38;;;13.93;100.00
21574;BME280;10948;48.706;9.258;2023-05-02T07:53:08;98223.31;;;13.95;100.00
21574;BME280;10948;48.706;9.258;2023-05-02T07:55:33;98218.72;;;13.98;100.00
21574;BME280;10948;48.706;9.258;2023-05-02T07:57:59;98221.25;;;14.00;100.00
21574;BME280;10948;48.706;9.258;2023-05-02T08:00:24;98227.56;;;14.10;100.00
21574;BME280;10948;48.706;9.258;2023-05-02T08:02:50;98223.91;;;14.12;100.00
21574;BME280;10948;48.706;9.258;2023-05-02T08:05:15;98223.06;;;14.12;100.00
21574;BME280;10948;48.706;9.258;2023-05-02T08:07:41;98237.63;;;14.16;100.00
21574;BME280;10948;48.706;9.258;2023-05-02T08:10:07;98242.59;;;14.33;100.00
21574;BME280;10948;48.706;9.258;2023-05-02T08:12:36;98240.38;;;14.27;100.00
21574;BME280;10948;48.706;9.258;2023-05-02T08:15:03;98233.06;;;14.32;100.00
21574;BME280;10948;48.706;9.258;2023-05-02T08:17:28;98245.66;;;14.52;100.00
21574;BME280;10948;48.706;9.258;2023-05-02T08:19:53;98252.97;;;14.47;100.00
21574;BME280;10948;48.706;9.258;2023-05-02T08:22:19;98257.16;;;14.49;100.00
21574;BME280;10948;48.706;9.258;2023-05-02T08:24:44;98255.06;;;14.67;100.00
21574;BME280;10948;48.706;9.258;2023-05-02T08:27:09;98257.59;;;14.56;100.00
21574;BME280;10948;48.706;9.258;2023-05-02T08:29:35;98256.31;;;14.74;100.00
21574;BME280;10948;48.706;9.258;2023-05-02T08:32:00;98255.59;;;14.97;100.00
21574;BME280;10948;48.706;9.258;2023-05-02T08:34:25;98269.94;;;15.04;100.00
21574;BME280;10948;48.706;9.258;2023-05-02T08:36:50;98263.84;;;15.16;100.00
21574;BME280;10948;48.706;9.258;2023-05-02T08:39:15;98266.03;;;15.09;100.00
21574;BME280;10948;48.706;9.258;2023-05-02T08:41:41;98262.34;;;15.24;100.00
21574;BME280;10948;48.706;9.258;2023-05-02T08:44:07;98267.28;;;15.29;100.00
21574;BME280;10948;48.706;9.258;2023-05-02T08:46:34;98270.34;;;15.23;100.00
21574;BME280;10948;48.706;9.258;2023-05-02T08:49:00;98270.28;;;15.48;100.00
21574;BME280;10948;48.706;9.258;2023-05-02T08:51:26;98264.75;;;15.76;100.00
21574;BME280;10948;48.706;9.258;2023-05-02T08:53:52;98263.78;;;16.00;100.00
21574;BME280;10948;48.706;9.258;2023-05-02T08:56:18;98258.50;;;16.24;99.41
21574;BME280;10948;48.706;9.258;2023-05-02T08:58:44;98259.78;;;16.42;98.45
21574;BME280;10948;48.706;9.258;2023-05-02T09:01:13;98266.56;;;16.90;96.79
21574;BME280;10948;48.706;9.258;2023-05-02T09:03:39;98268.81;;;17.16;93.20
21574;BME280;10948;48.706;9.258;2023-05-02T09:06:11;98277.78;;;17.24;91.39
21574;BME280;10948;48.706;9.258;2023-05-02T09:08:37;98279.44;;;17.25;87.91
21574;BME280;10948;48.706;9.258;2023-05-02T09:11:02;98274.13;;;17.38;87.15
21574;BME280;10948;48.706;9.258;2023-05-02T09:13:32;98278.38;;;17.50;87.80
21574;BME280;10948;48.706;9.258;2023-05-02T09:18:31;98282.94;;;18.01;84.13
21574;BME280;10948;48.706;9.258;2023-05-02T09:20:57;98286.38;;;18.13;82.59
21574;BME280;10948;48.706;9.258;2023-05-02T09:23:41;98282.25;;;17.88;82.89
21574;BME280;10948;48.706;9.258;2023-05-02T09:26:15;98288.16;;;18.12;81.73
21574;BME280;10948;48.706;9.258;2023-05-02T09:28:59;98291.03;;;18.20;81.61
21574;BME280;10948;48.706;9.258;2023-05-02T09:31:26;98282.34;;;18.40;78.95
21574;BME280;10948;48.706;9.258;2023-05-02T09:33:52;98282.56;;;18.26;76.91
21574;BME280;10948;48.706;9.258;2023-05-02T09:36:18;98281.63;;;18.59;76.57
21574;BME280;10948;48.706;9.258;2023-05-02T09:38:44;98277.47;;;19.07;73.93
21574;BME280;10948;48.706;9.258;2023-05-02T09:41:10;98277.25;;;19.49;73.01
21574;BME280;10948;48.706;9.258;2023-05-02T09:43:36;98278.69;;;19.82;70.05
21574;BME280;10948;48.706;9.258;2023-05-02T09:46:02;98278.31;;;20.81;67.75
21574;BME280;10948;48.706;9.258;2023-05-02T09:48:28;98282.50;;;20.93;63.77
21574;BME280;10948;48.706;9.258;2023-05-02T09:50:54;98275.38;;;20.94;64.34
21574;BME280;10948;48.706;9.258;2023-05-02T09:53:19;98280.69;;;21.30;62.38
21574;BME280;10948;48.706;9.258;2023-05-02T09:55:45;98280.13;;;21.90;62.46
21574;BME280;10948;48.706;9.258;2023-05-02T09:58:20;98279.56;;;22.66;59.39
21574;BME280;10948;48.706;9.258;2023-05-02T10:00:50;98278.72;;;22.91;57.82
21574;BME280;10948;48.706;9.258;2023-05-02T10:03:16;98279.97;;;22.79;58.19
21574;BME280;10948;48.706;9.258;2023-05-02T10:05:43;98278.78;;;23.99;55.75
21574;BME280;10948;48.706;9.258;2023-05-02T10:08:08;98278.38;;;23.78;53.41
21574;BME280;10948;48.706;9.258;2023-05-02T10:10:38;98283.44;;;23.90;51.22
21574;BME280;10948;48.706;9.258;2023-05-02T10:13:04;98281.16;;;24.10;51.41
21574;BME280;10948;48.706;9.258;2023-05-02T10:15:33;98285.00;;;25.20;50.33
21574;BME280;10948;48.706;9.258;2023-05-02T10:17:59;98294.00;;;24.47;50.19
21574;BME280;10948;48.706;9.258;2023-05-02T10:20:29;98290.75;;;23.03;53.25
21574;BME280;10948;48.706;9.258;2023-05-02T10:22:55;98297.66;;;22.71;55.11
21574;BME280;10948;48.706;9.258;2023-05-02T10:25:23;98292.13;;;22.64;54.39
21574;BME280;10948;48.706;9.258;2023-05-02T10:27:48;98288.34;;;24.50;51.61
21574;BME280;10948;48.706;9.258;2023-05-02T10:30:13;98288.03;;;24.69;49.84
21574;BME280;10948;48.706;9.258;2023-05-02T10:32:39;98285.72;;;24.66;49.00
21574;BME280;10948;48.706;9.258;2023-05-02T10:35:06;98286.72;;;24.73;48.36
21574;BME280;10948;48.706;9.258;2023-05-02T10:37:33;98288.09;;;25.47;47.94
21574;BME280;10948;48.706;9.258;2023-05-02T10:39:58;98290.91;;;23.19;52.16
21574;BME280;10948;48.706;9.258;2023-05-02T10:42:24;98291.22;;;22.73;52.07
21574;BME280;10948;48.706;9.258;2023-05-02T10:44:50;98284.75;;;22.06;52.72
21574;BME280;10948;48.706;9.258;2023-05-02T10:47:22;98292.09;;;21.94;54.56
21574;BME280;10948;48.706;9.258;2023-05-02T10:49:55;98287.06;;;23.22;53.58
21574;BME280;10948;48.706;9.258;2023-05-02T10:52:27;98279.84;;;23.73;50.34
21574;BME280;10948;48.706;9.258;2023-05-02T10:58:14;98267.59;;;23.80;47.87
21574;BME280;10948;48.706;9.258;2023-05-02T11:00:29;98271.91;;;25.87;47.33
21574;BME280;10948;48.706;9.258;2023-05-02T11:02:56;98271.66;;;26.13;45.99
21574;BME280;10948;48.706;9.258;2023-05-02T11:05:22;98278.13;;;27.00;46.32
21574;BME280;10948;48.706;9.258;2023-05-02T11:07:48;98274.34;;;25.66;48.19
21574;BME280;10948;48.706;9.258;2023-05-02T11:12:51;98272.06;;;26.24;45.00
21574;BME280;10948;48.706;9.258;2023-05-02T11:18:05;98268.25;;;27.81;43.13
21574;BME280;10948;48.706;9.258;2023-05-02T11:20:31;98273.78;;;27.51;42.92
21574;BME280;10948;48.706;9.258;2023-05-02T11:22:58;98267.25;;;28.03;43.31
21574;BME280;10948;48.706;9.258;2023-05-02T11:25:34;98269.28;;;28.79;40.93
21574;BME280;10948;48.706;9.258;2023-05-02T11:27:59;98266.00;;;27.70;41.61
21574;BME280;10948;48.706;9.258;2023-05-02T11:30:38;98264.78;;;25.80;44.21
21574;BME280;10948;48.706;9.258;2023-05-02T11:35:29;98261.88;;;24.24;46.19
21574;BME280;10948;48.706;9.258;2023-05-02T11:37:59;98260.72;;;24.43;47.40
21574;BME280;10948;48.706;9.258;2023-05-02T11:40:26;98259.72;;;24.36;47.69
21574;BME280;10948;48.706;9.258;2023-05-02T11:42:53;98264.91;;;23.80;47.39
21574;BME280;10948;48.706;9.258;2023-05-02T11:45:19;98265.19;;;23.61;47.86
21574;BME280;10948;48.706;9.258;2023-05-02T11:47:49;98258.88;;;24.27;47.63
21574;BME280;10948;48.706;9.258;2023-05-02T11:50:15;98262.06;;;25.57;46.39
21574;BME280;10948;48.706;9.258;2023-05-02T11:52:41;98257.09;;;25.46;45.56
21574;BME280;10948;48.706;9.258;2023-05-02T11:55:08;98251.22;;;25.97;45.72
21574;BME280;10948;48.706;9.258;2023-05-02T11:57:34;98259.69;;;25.70;44.52
21574;BME280;10948;48.706;9.258;2023-05-02T12:00:00;98260.72;;;24.91;45.84
21574;BME280;10948;48.706;9.258;2023-05-02T12:02:41;98256.84;;;24.05;47.63
21574;BME280;10948;48.706;9.258;2023-05-02T12:05:07;98258.22;;;23.68;48.56
21574;BME280;10948;48.706;9.258;2023-05-02T12:07:40;98261.28;;;23.14;49.71
21574;BME280;10948;48.706;9.258;2023-05-02T12:10:06;98265.88;;;23.30;49.25
21574;BME280;10948;48.706;9.258;2023-05-02T12:12:32;98266.31;;;23.51;49.25
21574;BME280;10948;48.706;9.258;2023-05-02T12:14:57;98259.84;;;23.53;47.31
21574;BME280;10948;48.706;9.258;2023-05-02T12:17:23;98243.44;;;24.39;46.38
21574;BME280;10948;48.706;9.258;2023-05-02T12:19:48;98251.34;;;25.27;44.54
21574;BME280;10948;48.706;9.258;2023-05-02T12:22:14;98250.75;;;24.69;43.71
21574;BME280;10948;48.706;9.258;2023-05-02T12:24:40;98250.41;;;23.67;45.56
21574;BME280;10948;48.706;9.258;2023-05-02T12:27:09;98246.59;;;23.69;46.10
21574;BME280;10948;48.706;9.258;2023-05-02T12:29:38;98251.22;;;23.59;47.79
21574;BME280;10948;48.706;9.258;2023-05-02T12:32:04;98265.06;;;23.37;48.75
21574;BME280;10948;48.706;9.258;2023-05-02T12:34:32;98261.06;;;23.08;48.95
21574;BME280;10948;48.706;9.258;2023-05-02T12:36:58;98255.53;;;22.93;49.27
21574;BME280;10948;48.706;9.258;2023-05-02T12:42:19;98255.59;;;24.65;46.79
21574;BME280;10948;48.706;9.258;2023-05-02T12:44:45;98255.50;;;25.13;46.11
21574;BME280;10948;48.706;9.258;2023-05-02T12:47:12;98256.63;;;25.43;44.57
21574;BME280;10948;48.706;9.258;2023-05-02T12:52:18;98262.06;;;24.71;44.67
21574;BME280;10948;48.706;9.258;2023-05-02T12:54:44;98259.38;;;24.15;46.29
21574;BME280;10948;48.706;9.258;2023-05-02T12:57:09;98270.59;;;22.93;48.70
21574;BME280;10948;48.706;9.258;2023-05-02T12:59:35;98277.47;;;23.03;50.26
21574;BME280;10948;48.706;9.258;2023-05-02T13:02:01;98272.06;;;22.44;49.98
21574;BME280;10948;48.706;9.258;2023-05-02T13:04:36;98274.78;;;22.52;50.35
21574;BME280;10948;48.706;9.258;2023-05-02T13:07:03;98264.75;;;22.11;50.45
21574;BME280;10948;48.706;9.258;2023-05-02T13:09:28;98279.19;;;22.26;50.06
21574;BME280;10948;48.706;9.258;2023-05-02T13:11:53;98276.66;;;22.07;51.34
21574;BME280;10948;48.706;9.258;2023-05-02T13:14:18;98285.66;;;21.43;52.71
21574;BME280;10948;48.706;9.258;2023-05-02T13:16:45;98285.72;;;21.33;53.65
21574;BME280;10948;48.706;9.258;2023-05-02T13:19:10;98286.22;;;21.46;53.68
21574;BME280;10948;48.706;9.258;2023-05-02T13:21:36;98275.34;;;21.03;54.93
21574;BME280;10948;48.706;9.258;2023-05-02T13:24:01;98274.13;;;21.34;54.44
21574;BME280;10948;48.706;9.258;2023-05-02T13:26:28;98273.06;;;21.54;54.17
21574;BME280;10948;48.706;9.258;2023-05-02T13:28:53;98271.19;;;21.37;54.32